createdAt,value
2018-08-04T00:00:15.639Z,23.47
2018-08-04T00:02:44.030Z,23.42
2018-08-04T00:05:12.413Z,23.35
2018-08-04T00:07:40.805Z,23.26
2018-08-04T00:10:19.153Z,23.19
2018-08-04T00:12:49.307Z,23.12
2018-08-04T00:15:17.745Z,23.06
2018-08-04T00:17:46.573Z,23.01
2018-08-04T00:20:15.140Z,22.93
2018-08-04T00:22:43.533Z,22.89
2018-08-04T00:25:11.922Z,22.83
2018-08-04T00:27:40.327Z,22.81
2018-08-04T00:30:11.205Z,22.76
2018-08-04T00:32:39.639Z,22.74
2018-08-04T00:35:08.473Z,22.71
2018-08-04T00:37:36.982Z,22.68
2018-08-04T00:40:06.399Z,22.65
2018-08-04T00:42:34.797Z,22.62
2018-08-04T00:45:03.435Z,22.60
2018-08-04T00:47:31.838Z,22.58
2018-08-04T00:50:00.409Z,22.57
2018-08-04T00:52:28.775Z,22.54
2018-08-04T00:54:57.379Z,22.52
2018-08-04T00:57:25.755Z,22.47
2018-08-04T00:59:54.146Z,22.45
2018-08-04T01:02:22.525Z,22.44
2018-08-04T01:04:50.927Z,22.42
2018-08-04T01:07:19.297Z,22.38
2018-08-04T01:09:47.751Z,22.32
2018-08-04T01:12:16.230Z,22.26
2018-08-04T01:14:44.918Z,22.21
2018-08-04T01:17:13.282Z,22.19
2018-08-04T01:19:41.886Z,22.14
2018-08-04T01:22:10.245Z,22.11
2018-08-04T01:24:38.654Z,22.07
2018-08-04T01:27:07.030Z,22.03
2018-08-04T01:29:35.421Z,21.98
2018-08-04T01:32:03.790Z,21.95
2018-08-04T01:34:32.187Z,21.91
2018-08-04T01:37:00.551Z,21.90
2018-08-04T01:39:28.942Z,21.89
2018-08-04T01:41:57.317Z,21.88
2018-08-04T01:44:25.719Z,21.87
2018-08-04T01:46:54.098Z,21.85
2018-08-04T01:49:22.498Z,21.83
2018-08-04T01:51:50.872Z,21.79
2018-08-04T01:54:19.266Z,21.76
2018-08-04T01:56:47.643Z,21.72
2018-08-04T01:59:16.109Z,21.68
2018-08-04T02:01:44.515Z,21.66
2018-08-04T02:04:12.915Z,21.62
2018-08-04T02:06:41.286Z,21.58
2018-08-04T02:09:10.902Z,21.55
2018-08-04T02:11:39.358Z,21.51
2018-08-04T02:14:07.766Z,21.48
2018-08-04T02:16:36.134Z,21.42
2018-08-04T02:19:04.525Z,21.38
2018-08-04T02:21:32.927Z,21.35
2018-08-04T02:24:01.328Z,21.32
2018-08-04T02:26:29.702Z,21.29
2018-08-04T02:28:58.107Z,21.26
2018-08-04T02:31:26.475Z,21.22
2018-08-04T02:33:54.875Z,21.18
2018-08-04T02:36:23.254Z,21.15
2018-08-04T02:38:51.664Z,21.13
2018-08-04T02:41:20.047Z,21.11
2018-08-04T02:43:48.443Z,21.09
2018-08-04T02:46:16.814Z,21.07
2018-08-04T02:48:45.198Z,21.04
2018-08-04T02:51:13.604Z,21.01
2018-08-04T02:53:42.414Z,20.98
2018-08-04T02:56:10.823Z,20.95
2018-08-04T02:58:39.198Z,20.93
2018-08-04T03:01:07.610Z,20.91
2018-08-04T03:03:36.027Z,20.89
2018-08-04T03:06:04.426Z,20.90
2018-08-04T03:08:32.842Z,20.92
2018-08-04T03:11:01.295Z,20.92
2018-08-04T03:13:29.661Z,20.95
2018-08-04T03:15:58.069Z,20.96
2018-08-04T03:18:26.438Z,20.98
2018-08-04T03:20:54.877Z,20.99
2018-08-04T03:23:23.253Z,20.98
2018-08-04T03:25:51.642Z,20.98
2018-08-04T03:28:20.151Z,21.00
2018-08-04T03:30:48.550Z,20.97
2018-08-04T03:33:16.926Z,20.94
2018-08-04T03:35:45.395Z,20.89
2018-08-04T03:38:13.769Z,20.87
2018-08-04T03:40:42.157Z,20.85
2018-08-04T03:43:10.538Z,20.82
2018-08-04T03:45:38.933Z,20.82
2018-08-04T03:48:07.301Z,20.82
2018-08-04T03:50:35.704Z,20.86
2018-08-04T03:53:04.079Z,20.93
2018-08-04T03:55:32.475Z,20.99
2018-08-04T03:58:00.855Z,21.06
2018-08-04T04:00:29.250Z,21.14
2018-08-04T04:02:57.614Z,21.22
2018-08-04T04:05:26.008Z,21.30
2018-08-04T04:07:54.379Z,21.39
2018-08-04T04:10:22.794Z,21.48
2018-08-04T04:12:51.166Z,21.54
2018-08-04T04:15:19.566Z,21.62
2018-08-04T04:17:48.638Z,21.68
2018-08-04T04:20:18.677Z,21.72
2018-08-04T04:22:47.140Z,21.78
2018-08-04T04:25:15.539Z,21.89
2018-08-04T04:27:44.400Z,21.97
2018-08-04T04:30:13.850Z,22.08
2018-08-04T04:32:42.229Z,22.17
2018-08-04T04:35:10.634Z,22.25
2018-08-04T04:37:39.026Z,22.29
2018-08-04T04:40:07.464Z,22.36
2018-08-04T04:42:35.862Z,22.40
2018-08-04T04:45:04.259Z,22.44
2018-08-04T04:47:32.650Z,22.43
2018-08-04T04:50:01.023Z,22.44
2018-08-04T04:52:29.416Z,22.42
2018-08-04T04:54:57.785Z,22.44
2018-08-04T04:57:26.964Z,22.49
2018-08-04T04:59:55.381Z,22.55
2018-08-04T05:02:23.781Z,22.60
2018-08-04T05:04:52.155Z,22.68
2018-08-04T05:07:20.549Z,22.78
2018-08-04T05:09:49.095Z,22.88
2018-08-04T05:12:17.474Z,22.96
2018-08-04T05:14:45.833Z,23.07
2018-08-04T05:17:14.230Z,23.17
2018-08-04T05:19:42.595Z,23.24
2018-08-04T05:22:11.001Z,23.35
2018-08-04T05:24:39.369Z,23.45
2018-08-04T05:27:08.193Z,23.54
2018-08-04T05:29:38.168Z,23.65
2018-08-04T05:32:06.581Z,23.75
2018-08-04T05:34:34.969Z,23.84
2018-08-04T05:37:03.350Z,23.92
2018-08-04T05:39:31.740Z,24.03
2018-08-04T05:42:00.143Z,24.12
2018-08-04T05:44:28.567Z,24.23
2018-08-04T05:46:56.967Z,24.33
2018-08-04T05:49:25.374Z,24.46
2018-08-04T05:51:53.815Z,24.60
2018-08-04T05:54:22.195Z,24.74
2018-08-04T05:56:50.595Z,24.87
2018-08-04T05:59:19.133Z,24.98
2018-08-04T06:01:47.755Z,25.08
2018-08-04T06:04:16.126Z,25.16
2018-08-04T06:06:44.530Z,25.24
2018-08-04T06:09:12.898Z,25.35
2018-08-04T06:11:41.773Z,25.44
2018-08-04T06:14:10.154Z,25.55
2018-08-04T06:16:38.551Z,25.62
2018-08-04T06:19:06.925Z,25.68
2018-08-04T06:21:35.321Z,25.73
2018-08-04T06:24:03.703Z,25.79
2018-08-04T06:26:32.122Z,25.90
2018-08-04T06:29:01.239Z,26.06
2018-08-04T06:31:29.652Z,26.21
2018-08-04T06:33:58.030Z,26.30
2018-08-04T06:36:26.439Z,26.36
2018-08-04T06:38:54.825Z,26.40
2018-08-04T06:41:23.225Z,26.41
2018-08-04T06:43:51.608Z,26.42
2018-08-04T06:46:19.991Z,26.42
2018-08-04T06:48:48.392Z,26.44
2018-08-04T06:51:16.775Z,26.49
2018-08-04T06:53:45.195Z,26.54
2018-08-04T06:56:13.579Z,26.57
2018-08-04T06:58:41.977Z,26.56
2018-08-04T07:01:10.365Z,26.58
2018-08-04T07:03:38.757Z,26.62
2018-08-04T07:06:07.129Z,26.63
2018-08-04T07:08:35.722Z,26.67
2018-08-04T07:11:04.122Z,26.70
2018-08-04T07:13:32.522Z,26.79
2018-08-04T07:16:00.894Z,26.91
2018-08-04T07:18:29.293Z,27.06
2018-08-04T07:20:57.665Z,27.19
2018-08-04T07:23:26.069Z,27.30
2018-08-04T07:25:54.446Z,27.36
2018-08-04T07:28:22.845Z,27.43
2018-08-04T07:30:51.219Z,27.48
2018-08-04T07:33:19.623Z,27.60
2018-08-04T07:35:47.995Z,27.71
2018-08-04T07:38:16.504Z,27.82
2018-08-04T07:40:44.875Z,27.88
2018-08-04T07:43:13.275Z,27.94
2018-08-04T07:45:41.664Z,28.00
2018-08-04T07:48:10.071Z,28.07
2018-08-04T07:50:38.458Z,28.19
2018-08-04T07:53:06.880Z,28.31
2018-08-04T07:55:35.254Z,28.45
2018-08-04T07:58:03.647Z,28.51
2018-08-04T08:00:32.043Z,28.61
2018-08-04T08:03:00.438Z,28.68
2018-08-04T08:05:28.815Z,28.78
2018-08-04T08:07:57.222Z,28.86
2018-08-04T08:10:25.630Z,28.94
2018-08-04T08:12:54.051Z,29.02
2018-08-04T08:15:22.437Z,29.14
2018-08-04T08:17:50.830Z,29.18
2018-08-04T08:20:19.216Z,29.21
2018-08-04T08:22:47.622Z,29.28
2018-08-04T08:25:15.999Z,29.39
2018-08-04T08:27:44.394Z,29.46
2018-08-04T08:30:14.260Z,29.49
2018-08-04T08:32:42.697Z,29.51
2018-08-04T08:35:11.598Z,29.50
2018-08-04T08:37:40.232Z,29.50
2018-08-04T08:40:09.237Z,29.47
2018-08-04T08:42:37.774Z,29.48
2018-08-04T08:45:07.984Z,29.48
2018-08-04T08:47:36.362Z,29.48
2018-08-04T08:50:07.090Z,29.47
2018-08-04T08:52:35.491Z,29.44
2018-08-04T08:55:05.087Z,29.46
2018-08-04T08:57:33.468Z,29.49
2018-08-04T09:00:01.996Z,29.54
2018-08-04T09:02:30.374Z,29.65
2018-08-04T09:04:58.777Z,29.81
2018-08-04T09:07:27.141Z,29.94
2018-08-04T09:09:55.561Z,30.08
2018-08-04T09:12:23.938Z,30.20
2018-08-04T09:14:52.347Z,30.28
2018-08-04T09:17:20.713Z,30.31
2018-08-04T09:19:49.102Z,30.34
2018-08-04T09:22:17.484Z,30.35
2018-08-04T09:24:45.910Z,30.40
2018-08-04T09:27:14.294Z,30.46
2018-08-04T09:29:42.721Z,30.50
2018-08-04T09:32:11.094Z,30.52
2018-08-04T09:34:39.511Z,30.56
2018-08-04T09:37:07.890Z,30.62
2018-08-04T09:39:36.310Z,30.64
2018-08-04T09:42:04.685Z,30.69
2018-08-04T09:44:33.432Z,30.73
2018-08-04T09:47:01.811Z,30.76
2018-08-04T09:49:30.231Z,30.84
2018-08-04T09:51:58.619Z,30.95
2018-08-04T09:54:27.018Z,31.06
2018-08-04T09:56:55.419Z,31.14
2018-08-04T09:59:23.821Z,31.22
2018-08-04T10:01:56.363Z,31.30
2018-08-04T10:04:24.772Z,31.34
2018-08-04T10:06:53.144Z,31.35
2018-08-04T10:09:21.550Z,31.36
2018-08-04T10:11:49.942Z,31.40
2018-08-04T10:14:18.351Z,31.43
2018-08-04T10:16:46.732Z,31.49
2018-08-04T10:19:15.150Z,31.57
2018-08-04T10:21:43.622Z,31.64
2018-08-04T10:24:12.030Z,31.67
2018-08-04T10:26:40.416Z,31.69
2018-08-04T10:29:08.900Z,31.75
2018-08-04T10:31:37.267Z,31.80
2018-08-04T10:34:05.970Z,31.85
2018-08-04T10:36:34.375Z,31.89
2018-08-04T10:39:02.847Z,31.92
2018-08-04T10:41:31.257Z,31.96
2018-08-04T10:43:59.665Z,32.00
2018-08-04T10:46:28.302Z,32.02
2018-08-04T10:48:56.707Z,32.03
2018-08-04T10:51:25.114Z,31.97
2018-08-04T10:53:53.535Z,31.96
2018-08-04T10:56:21.963Z,31.98
2018-08-04T10:58:50.399Z,31.99
2018-08-04T11:01:18.816Z,32.03
2018-08-04T11:03:47.203Z,32.07
2018-08-04T11:06:15.618Z,32.13
2018-08-04T11:08:43.998Z,32.15
2018-08-04T11:11:12.600Z,32.14
2018-08-04T11:13:41.080Z,32.13
2018-08-04T11:16:09.489Z,32.12
2018-08-04T11:18:37.880Z,32.13
2018-08-04T11:21:06.334Z,32.15
2018-08-04T11:23:34.718Z,32.23
2018-08-04T11:26:03.154Z,32.28
2018-08-04T11:28:31.555Z,32.28
2018-08-04T11:31:00.005Z,32.28
2018-08-04T11:33:28.388Z,32.28
2018-08-04T11:35:56.802Z,32.28
2018-08-04T11:38:25.216Z,32.29
2018-08-04T11:40:53.621Z,32.29
2018-08-04T11:43:22.049Z,32.35
2018-08-04T11:45:50.458Z,32.38
2018-08-04T11:48:18.867Z,32.42
2018-08-04T11:50:47.271Z,32.48
2018-08-04T11:53:15.658Z,32.49
2018-08-04T11:55:44.083Z,32.45
2018-08-04T11:58:12.585Z,32.44
2018-08-04T12:00:41.030Z,32.43
2018-08-04T12:03:09.426Z,32.44
2018-08-04T12:05:38.054Z,32.45
2018-08-04T12:08:06.803Z,32.48
2018-08-04T12:10:35.234Z,32.53
2018-08-04T12:13:03.629Z,32.54
2018-08-04T12:15:32.040Z,32.60
2018-08-04T12:18:00.480Z,32.63
2018-08-04T12:20:28.939Z,32.66
2018-08-04T12:22:57.399Z,32.69
2018-08-04T12:25:25.835Z,32.68
2018-08-04T12:27:54.236Z,32.67
2018-08-04T12:30:22.642Z,32.66
2018-08-04T12:32:51.027Z,32.69
2018-08-04T12:35:19.487Z,32.74
2018-08-04T12:37:48.061Z,32.74
2018-08-04T12:40:16.460Z,32.73
2018-08-04T12:42:44.985Z,32.76
2018-08-04T12:45:13.381Z,32.77
2018-08-04T12:47:41.805Z,32.72
2018-08-04T12:50:10.194Z,32.65
2018-08-04T12:52:38.641Z,32.59
2018-08-04T12:55:07.027Z,32.55
2018-08-04T12:57:35.434Z,32.53
2018-08-04T13:00:04.501Z,32.48
2018-08-04T13:02:32.969Z,32.47
2018-08-04T13:05:01.332Z,32.51
2018-08-04T13:07:29.734Z,32.56
2018-08-04T13:09:58.149Z,32.71
2018-08-04T13:12:26.549Z,32.83
2018-08-04T13:14:54.926Z,32.91
2018-08-04T13:17:23.339Z,32.94
2018-08-04T13:19:51.897Z,32.90
2018-08-04T13:22:20.338Z,32.92
2018-08-04T13:24:48.737Z,32.88
2018-08-04T13:27:17.203Z,32.86
2018-08-04T13:29:45.630Z,32.80
2018-08-04T13:32:14.343Z,32.71
2018-08-04T13:34:42.779Z,32.62
2018-08-04T13:37:11.228Z,32.55
2018-08-04T13:39:39.595Z,32.44
2018-08-04T13:42:08.185Z,32.35
2018-08-04T13:44:36.732Z,32.31
2018-08-04T13:47:05.155Z,32.32
2018-08-04T13:49:33.543Z,32.36
2018-08-04T13:52:01.971Z,32.42
2018-08-04T13:54:30.356Z,32.41
2018-08-04T13:56:58.847Z,32.45
2018-08-04T13:59:27.226Z,32.49
2018-08-04T14:01:55.628Z,32.47
2018-08-04T14:04:24.011Z,32.45
2018-08-04T14:06:52.423Z,32.46
2018-08-04T14:09:20.804Z,32.39
2018-08-04T14:11:49.230Z,32.31
2018-08-04T14:14:17.802Z,32.20
2018-08-04T14:16:46.206Z,32.09
2018-08-04T14:19:14.591Z,31.98
2018-08-04T14:21:43.116Z,31.83
2018-08-04T14:24:11.573Z,31.70
2018-08-04T14:26:40.069Z,31.59
2018-08-04T14:29:08.455Z,31.50
2018-08-04T14:31:36.870Z,31.39
2018-08-04T14:34:05.266Z,31.33
2018-08-04T14:36:33.680Z,31.35
2018-08-04T14:39:02.087Z,31.38
2018-08-04T14:41:30.505Z,31.41
2018-08-04T14:43:58.945Z,31.47
2018-08-04T14:46:27.366Z,31.54
2018-08-04T14:48:55.888Z,31.54
2018-08-04T14:51:24.254Z,31.62
2018-08-04T14:53:52.650Z,31.70
2018-08-04T14:56:21.050Z,31.80
2018-08-04T14:58:49.458Z,31.82
2018-08-04T15:01:17.839Z,31.79
2018-08-04T15:03:46.239Z,31.71
2018-08-04T15:06:14.615Z,31.61
2018-08-04T15:08:43.016Z,31.54
2018-08-04T15:11:11.414Z,31.53
2018-08-04T15:13:39.823Z,31.56
2018-08-04T15:16:08.197Z,31.63
2018-08-04T15:18:36.611Z,31.64
2018-08-04T15:21:05.008Z,31.61
2018-08-04T15:23:33.411Z,31.49
2018-08-04T15:26:01.786Z,31.41
2018-08-04T15:28:30.221Z,31.43
2018-08-04T15:30:58.610Z,31.46
2018-08-04T15:33:27.024Z,31.47
2018-08-04T15:35:55.514Z,31.50
2018-08-04T15:38:24.127Z,31.55
2018-08-04T15:40:52.507Z,31.57
2018-08-04T15:43:20.909Z,31.61
2018-08-04T15:45:49.661Z,31.64
2018-08-04T15:48:18.181Z,31.68
2018-08-04T15:50:46.710Z,31.71
2018-08-04T15:53:15.114Z,31.76
2018-08-04T15:55:43.583Z,31.74
2018-08-04T15:58:11.986Z,31.73
2018-08-04T16:00:40.375Z,31.69
2018-08-04T16:03:08.779Z,31.67
2018-08-04T16:05:37.146Z,31.66
2018-08-04T16:08:05.550Z,31.68
2018-08-04T16:10:33.945Z,31.73
2018-08-04T16:13:02.414Z,31.81
2018-08-04T16:15:30.821Z,31.88
2018-08-04T16:17:59.229Z,31.94
2018-08-04T16:20:27.610Z,31.99
2018-08-04T16:22:56.066Z,31.97
2018-08-04T16:25:24.454Z,31.97
2018-08-04T16:27:52.869Z,31.94
2018-08-04T16:30:21.245Z,31.88
2018-08-04T16:32:49.662Z,31.80
2018-08-04T16:35:18.041Z,31.74
2018-08-04T16:37:46.463Z,31.70
2018-08-04T16:40:14.833Z,31.68
2018-08-04T16:42:43.228Z,31.59
2018-08-04T16:45:11.631Z,31.49
2018-08-04T16:47:40.027Z,31.34
2018-08-04T16:50:08.431Z,31.19
2018-08-04T16:52:36.884Z,31.05
2018-08-04T16:55:05.287Z,30.93
2018-08-04T16:57:33.663Z,30.81
2018-08-04T17:00:02.063Z,30.70
2018-08-04T17:02:30.439Z,30.63
2018-08-04T17:04:58.826Z,30.56
2018-08-04T17:07:27.196Z,30.52
2018-08-04T17:09:55.623Z,30.49
2018-08-04T17:12:24.056Z,30.48
2018-08-04T17:14:52.413Z,30.49
2018-08-04T17:17:20.786Z,30.54
2018-08-04T17:19:49.185Z,30.57
2018-08-04T17:22:17.610Z,30.59
2018-08-04T17:24:45.961Z,30.59
2018-08-04T17:27:14.330Z,30.58
2018-08-04T17:29:42.722Z,30.53
2018-08-04T17:32:11.099Z,30.46
2018-08-04T17:34:39.499Z,30.35
2018-08-04T17:37:07.879Z,30.18
2018-08-04T17:39:36.278Z,30.03
2018-08-04T17:42:04.650Z,29.92
2018-08-04T17:44:33.123Z,29.80
2018-08-04T17:47:01.456Z,29.73
2018-08-04T17:49:29.859Z,29.63
2018-08-04T17:51:58.228Z,29.48
2018-08-04T17:54:26.637Z,29.39
2018-08-04T17:56:55.022Z,29.25
2018-08-04T17:59:23.464Z,29.12
2018-08-04T18:01:51.870Z,29.01
2018-08-04T18:04:20.271Z,28.91
2018-08-04T18:06:48.651Z,28.78
2018-08-04T18:09:17.046Z,28.70
2018-08-04T18:11:45.433Z,28.62
2018-08-04T18:14:13.817Z,28.52
2018-08-04T18:16:42.183Z,28.40
2018-08-04T18:19:10.574Z,28.27
2018-08-04T18:21:38.945Z,28.11
2018-08-04T18:24:07.347Z,27.97
2018-08-04T18:26:35.714Z,27.85
2018-08-04T18:29:04.237Z,27.74
2018-08-04T18:31:32.625Z,27.64
2018-08-04T18:34:01.019Z,27.54
2018-08-04T18:36:29.400Z,27.46
2018-08-04T18:38:57.799Z,27.36
2018-08-04T18:41:26.186Z,27.28
2018-08-04T18:43:54.563Z,27.21
2018-08-04T18:46:22.979Z,27.12
2018-08-04T18:48:51.358Z,27.05
2018-08-04T18:51:19.763Z,26.97
2018-08-04T18:53:48.133Z,26.89
2018-08-04T18:56:16.524Z,26.83
2018-08-04T18:58:44.897Z,26.76
2018-08-04T19:01:13.305Z,26.69
2018-08-04T19:03:41.690Z,26.58
2018-08-04T19:06:10.083Z,26.49
2018-08-04T19:08:38.454Z,26.43
2018-08-04T19:11:06.867Z,26.35
2018-08-04T19:13:35.239Z,26.29
2018-08-04T19:16:03.674Z,26.23
2018-08-04T19:18:32.025Z,26.17
2018-08-04T19:21:00.430Z,26.15
2018-08-04T19:23:28.803Z,26.13
2018-08-04T19:25:57.193Z,26.11
2018-08-04T19:28:25.636Z,26.10
2018-08-04T19:30:53.990Z,26.07
2018-08-04T19:33:22.361Z,26.05
2018-08-04T19:35:50.754Z,26.01
2018-08-04T19:38:19.130Z,25.97
2018-08-04T19:40:47.522Z,25.94
2018-08-04T19:43:15.890Z,25.93
2018-08-04T19:45:44.278Z,25.91
2018-08-04T19:48:12.684Z,25.91
2018-08-04T19:50:41.112Z,25.89
2018-08-04T19:53:09.565Z,25.89
2018-08-04T19:55:37.994Z,25.88
2018-08-04T19:58:06.387Z,25.89
2018-08-04T20:00:34.837Z,25.88
2018-08-04T20:03:03.214Z,25.88
2018-08-04T20:05:31.679Z,25.84
2018-08-04T20:08:00.167Z,25.86
2018-08-04T20:10:28.584Z,25.86
2018-08-04T20:12:56.969Z,25.84
2018-08-04T20:15:25.353Z,25.81
2018-08-04T20:17:53.731Z,25.78
2018-08-04T20:20:22.337Z,25.77
2018-08-04T20:22:51.094Z,25.75
2018-08-04T20:25:19.501Z,25.72
2018-08-04T20:27:47.889Z,25.69
2018-08-04T20:30:16.314Z,25.65
2018-08-04T20:32:44.702Z,25.59
2018-08-04T20:35:13.134Z,25.52
2018-08-04T20:37:41.534Z,25.46
2018-08-04T20:40:09.921Z,25.40
2018-08-04T20:42:38.327Z,25.32
2018-08-04T20:45:06.690Z,25.27
2018-08-04T20:47:35.090Z,25.22
2018-08-04T20:50:03.483Z,25.16
2018-08-04T20:52:31.910Z,25.12
2018-08-04T20:55:00.291Z,25.08
2018-08-04T20:57:28.689Z,25.03
2018-08-04T20:59:57.099Z,24.98
2018-08-04T21:02:25.501Z,24.93
2018-08-04T21:04:53.880Z,24.91
2018-08-04T21:07:22.278Z,24.88
2018-08-04T21:09:50.683Z,24.85
2018-08-04T21:12:19.069Z,24.80
2018-08-04T21:14:47.446Z,24.76
2018-08-04T21:17:15.858Z,24.73
2018-08-04T21:19:44.230Z,24.69
2018-08-04T21:22:12.627Z,24.66
2018-08-04T21:24:41.011Z,24.60
2018-08-04T21:27:09.415Z,24.57
2018-08-04T21:29:37.791Z,24.54
2018-08-04T21:32:06.206Z,24.50
2018-08-04T21:34:35.303Z,24.48
2018-08-04T21:37:03.705Z,24.47
2018-08-04T21:39:32.082Z,24.44
2018-08-04T21:42:00.494Z,24.42
2018-08-04T21:44:28.888Z,24.39
2018-08-04T21:46:57.302Z,24.35
2018-08-04T21:49:25.749Z,24.31
2018-08-04T21:51:54.122Z,24.29
2018-08-04T21:54:22.514Z,24.28
2018-08-04T21:56:50.914Z,24.26
2018-08-04T21:59:19.423Z,24.24
2018-08-04T22:01:53.237Z,24.24
2018-08-04T22:04:21.543Z,24.21
2018-08-04T22:08:00.809Z,24.20
2018-08-04T22:10:29.217Z,24.15
2018-08-04T22:12:58.145Z,24.11
2018-08-04T22:15:26.638Z,24.06
2018-08-04T22:17:55.070Z,24.03
2018-08-04T22:20:24.123Z,23.99
2018-08-04T22:22:52.751Z,23.96
2018-08-04T22:25:22.410Z,23.92
2018-08-04T22:27:50.863Z,23.88
2018-08-04T22:30:20.507Z,23.85
2018-08-04T22:32:49.422Z,23.81
2018-08-04T22:35:17.912Z,23.77
2018-08-04T22:37:46.319Z,23.74
2018-08-04T22:40:15.549Z,23.70
2018-08-04T22:42:44.267Z,23.64
2018-08-04T22:46:07.623Z,23.60
2018-08-04T22:48:36.224Z,23.53
2018-08-04T22:51:04.623Z,23.46
2018-08-04T22:53:33.182Z,23.43
2018-08-04T22:56:01.566Z,23.39
2018-08-04T22:58:30.042Z,23.36
2018-08-04T23:00:58.594Z,23.29
2018-08-04T23:03:26.996Z,23.27
2018-08-04T23:05:55.384Z,23.24
2018-08-04T23:08:23.961Z,23.19
2018-08-04T23:10:52.361Z,23.16
2018-08-04T23:13:20.765Z,23.11
2018-08-04T23:15:49.143Z,23.06
2018-08-04T23:18:17.536Z,23.03
2018-08-04T23:20:45.906Z,22.97
2018-08-04T23:23:14.751Z,22.93
2018-08-04T23:25:43.218Z,22.88
2018-08-04T23:28:11.606Z,22.83
2018-08-04T23:30:39.986Z,22.79
2018-08-04T23:33:08.400Z,22.74
2018-08-04T23:35:36.783Z,22.69
2018-08-04T23:38:05.169Z,22.65
2018-08-04T23:40:33.537Z,22.61
2018-08-04T23:43:01.949Z,22.59
2018-08-04T23:45:30.326Z,22.55
2018-08-04T23:47:58.710Z,22.52
2018-08-04T23:50:27.088Z,22.48
2018-08-04T23:52:55.494Z,22.44
2018-08-04T23:55:23.874Z,22.39
2018-08-04T23:57:52.274Z,22.36
